sensor_id;sensor_type;location;lat;lon;timestamp;pressure;altitude;pressure_sealevel;temperature
68127;BMP180;54931;52.098;21.006;2023-08-07T00:00:50;98616.60;;;14.20
68127;BMP180;54931;52.098;21.006;2023-08-07T00:03:33;98621.60;;;14.20
68127;BMP180;54931;52.098;21.006;2023-08-07T00:06:00;98628.80;;;14.20
68127;BMP180;54931;52.098;21.006;2023-08-07T00:08:28;98631.60;;;14.18
68127;BMP180;54931;52.098;21.006;2023-08-07T00:11:07;98639.60;;;14.10
68127;BMP180;54931;52.098;21.006;2023-08-07T00:13:36;98642.80;;;14.10
68127;BMP180;54931;52.098;21.006;2023-08-07T00:16:03;98641.20;;;14.10
68127;BMP180;54931;52.098;21.006;2023-08-07T00:18:31;98648.40;;;14.10
68127;BMP180;54931;52.098;21.006;2023-08-07T00:20:59;98643.20;;;14.10
68127;BMP180;54931;52.098;21.006;2023-08-07T00:23:27;98643.80;;;14.10
68127;BMP180;54931;52.098;21.006;2023-08-07T00:25:55;98642.00;;;14.10
68127;BMP180;54931;52.098;21.006;2023-08-07T00:28:22;98639.80;;;14.10
68127;BMP180;54931;52.098;21.006;2023-08-07T00:30:50;98637.20;;;14.10
68127;BMP180;54931;52.098;21.006;2023-08-07T00:33:17;98645.60;;;14.10
68127;BMP180;54931;52.098;21.006;2023-08-07T00:35:45;98651.80;;;14.10
68127;BMP180;54931;52.098;21.006;2023-08-07T00:38:13;98649.80;;;14.10
68127;BMP180;54931;52.098;21.006;2023-08-07T00:40:40;98641.00;;;14.10
68127;BMP180;54931;52.098;21.006;2023-08-07T00:43:08;98637.20;;;14.10
68127;BMP180;54931;52.098;21.006;2023-08-07T00:45:43;98628.00;;;14.10
68127;BMP180;54931;52.098;21.006;2023-08-07T00:48:12;98621.60;;;14.10
68127;BMP180;54931;52.098;21.006;2023-08-07T00:50:42;98624.40;;;14.10
68127;BMP180;54931;52.098;21.006;2023-08-07T00:53:10;98620.80;;;14.10
68127;BMP180;54931;52.098;21.006;2023-08-07T00:55:37;98618.40;;;14.12
68127;BMP180;54931;52.098;21.006;2023-08-07T00:58:05;98609.80;;;14.10
68127;BMP180;54931;52.098;21.006;2023-08-07T01:00:34;98611.00;;;14.10
68127;BMP180;54931;52.098;21.006;2023-08-07T01:03:05;98610.20;;;14.10
68127;BMP180;54931;52.098;21.006;2023-08-07T01:05:34;98606.60;;;14.10
68127;BMP180;54931;52.098;21.006;2023-08-07T01:08:03;98608.00;;;14.10
68127;BMP180;54931;52.098;21.006;2023-08-07T01:13:55;98602.20;;;14.10
68127;BMP180;54931;52.098;21.006;2023-08-07T01:16:36;98593.40;;;14.02
68127;BMP180;54931;52.098;21.006;2023-08-07T01:19:17;98602.80;;;14.00
68127;BMP180;54931;52.098;21.006;2023-08-07T01:21:48;98601.60;;;13.92
68127;BMP180;54931;52.098;21.006;2023-08-07T01:24:16;98598.80;;;13.90
68127;BMP180;54931;52.098;21.006;2023-08-07T01:26:45;98605.20;;;13.80
68127;BMP180;54931;52.098;21.006;2023-08-07T01:29:34;98609.80;;;13.80
68127;BMP180;54931;52.098;21.006;2023-08-07T01:32:07;98607.00;;;13.70
68127;BMP180;54931;52.098;21.006;2023-08-07T01:34:41;98608.60;;;13.70
68127;BMP180;54931;52.098;21.006;2023-08-07T01:37:12;98609.40;;;13.70
68127;BMP180;54931;52.098;21.006;2023-08-07T01:39:41;98610.60;;;13.70
68127;BMP180;54931;52.098;21.006;2023-08-07T01:42:09;98612.60;;;13.70
68127;BMP180;54931;52.098;21.006;2023-08-07T01:44:37;98618.60;;;13.60
68127;BMP180;54931;52.098;21.006;2023-08-07T01:47:06;98633.80;;;13.60
68127;BMP180;54931;52.098;21.006;2023-08-07T01:49:33;98644.80;;;13.60
68127;BMP180;54931;52.098;21.006;2023-08-07T01:52:01;98639.80;;;13.60
68127;BMP180;54931;52.098;21.006;2023-08-07T01:54:29;98633.80;;;13.60
68127;BMP180;54931;52.098;21.006;2023-08-07T01:56:56;98622.00;;;13.60
68127;BMP180;54931;52.098;21.006;2023-08-07T01:59:23;98613.00;;;13.60
68127;BMP180;54931;52.098;21.006;2023-08-07T02:01:51;98613.20;;;13.60
68127;BMP180;54931;52.098;21.006;2023-08-07T02:04:18;98612.20;;;13.50
68127;BMP180;54931;52.098;21.006;2023-08-07T02:06:46;98607.80;;;13.50
68127;BMP180;54931;52.098;21.006;2023-08-07T02:09:13;98606.60;;;13.50
68127;BMP180;54931;52.098;21.006;2023-08-07T02:11:42;98606.00;;;13.50
68127;BMP180;54931;52.098;21.006;2023-08-07T02:14:10;98597.80;;;13.50
68127;BMP180;54931;52.098;21.006;2023-08-07T02:16:38;98605.40;;;13.50
68127;BMP180;54931;52.098;21.006;2023-08-07T02:19:05;98614.60;;;13.48
68127;BMP180;54931;52.098;21.006;2023-08-07T02:21:33;98620.20;;;13.44
68127;BMP180;54931;52.098;21.006;2023-08-07T02:24:00;98636.60;;;13.48
68127;BMP180;54931;52.098;21.006;2023-08-07T02:26:28;98649.80;;;13.48
68127;BMP180;54931;52.098;21.006;2023-08-07T02:28:55;98658.00;;;13.48
68127;BMP180;54931;52.098;21.006;2023-08-07T02:31:23;98660.60;;;13.50
68127;BMP180;54931;52.098;21.006;2023-08-07T02:33:51;98653.60;;;13.50
68127;BMP180;54931;52.098;21.006;2023-08-07T02:36:18;98642.40;;;13.50
68127;BMP180;54931;52.098;21.006;2023-08-07T02:38:46;98643.40;;;13.50
68127;BMP180;54931;52.098;21.006;2023-08-07T02:41:13;98637.60;;;13.50
68127;BMP180;54931;52.098;21.006;2023-08-07T02:43:41;98640.40;;;13.50
68127;BMP180;54931;52.098;21.006;2023-08-07T02:46:08;98641.20;;;13.50
68127;BMP180;54931;52.098;21.006;2023-08-07T02:48:36;98647.60;;;13.50
68127;BMP180;54931;52.098;21.006;2023-08-07T02:51:03;98656.80;;;13.50
68127;BMP180;54931;52.098;21.006;2023-08-07T02:53:31;98659.40;;;13.50
68127;BMP180;54931;52.098;21.006;2023-08-07T02:55:58;98661.20;;;13.50
68127;BMP180;54931;52.098;21.006;2023-08-07T02:58:26;98664.60;;;13.50
68127;BMP180;54931;52.098;21.006;2023-08-07T03:00:53;98657.60;;;13.50
68127;BMP180;54931;52.098;21.006;2023-08-07T03:03:21;98646.20;;;13.50
68127;BMP180;54931;52.098;21.006;2023-08-07T03:05:50;98641.00;;;13.50
68127;BMP180;54931;52.098;21.006;2023-08-07T03:08:18;98635.60;;;13.42
68127;BMP180;54931;52.098;21.006;2023-08-07T03:10:54;98638.20;;;13.40
68127;BMP180;54931;52.098;21.006;2023-08-07T03:13:26;98645.60;;;13.40
68127;BMP180;54931;52.098;21.006;2023-08-07T03:16:05;98654.00;;;13.40
68127;BMP180;54931;52.098;21.006;2023-08-07T03:18:35;98665.80;;;13.34
68127;BMP180;54931;52.098;21.006;2023-08-07T03:21:02;98669.80;;;13.30
68127;BMP180;54931;52.098;21.006;2023-08-07T03:23:30;98677.20;;;13.30
68127;BMP180;54931;52.098;21.006;2023-08-07T03:26:08;98676.60;;;13.20
68127;BMP180;54931;52.098;21.006;2023-08-07T03:28:36;98679.60;;;13.20
68127;BMP180;54931;52.098;21.006;2023-08-07T03:31:04;98682.00;;;13.20
68127;BMP180;54931;52.098;21.006;2023-08-07T03:33:31;98689.40;;;13.20
68127;BMP180;54931;52.098;21.006;2023-08-07T03:35:59;98688.60;;;13.20
68127;BMP180;54931;52.098;21.006;2023-08-07T03:38:27;98685.80;;;13.20
68127;BMP180;54931;52.098;21.006;2023-08-07T03:40:55;98685.20;;;13.20
68127;BMP180;54931;52.098;21.006;2023-08-07T03:43:23;98692.80;;;13.20
68127;BMP180;54931;52.098;21.006;2023-08-07T03:45:55;98690.00;;;13.20
68127;BMP180;54931;52.098;21.006;2023-08-07T03:48:24;98691.20;;;13.20
68127;BMP180;54931;52.098;21.006;2023-08-07T03:50:52;98689.40;;;13.20
68127;BMP180;54931;52.098;21.006;2023-08-07T03:53:20;98689.80;;;13.30
68127;BMP180;54931;52.098;21.006;2023-08-07T03:55:51;98686.20;;;13.30
68127;BMP180;54931;52.098;21.006;2023-08-07T03:58:19;98685.20;;;13.38
68127;BMP180;54931;52.098;21.006;2023-08-07T04:00:47;98684.20;;;13.40
68127;BMP180;54931;52.098;21.006;2023-08-07T04:03:14;98682.00;;;13.40
68127;BMP180;54931;52.098;21.006;2023-08-07T04:05:42;98681.80;;;13.50
68127;BMP180;54931;52.098;21.006;2023-08-07T04:08:10;98682.60;;;13.50
68127;BMP180;54931;52.098;21.006;2023-08-07T04:10:37;98678.40;;;13.50
68127;BMP180;54931;52.098;21.006;2023-08-07T04:13:07;98679.60;;;13.50
68127;BMP180;54931;52.098;21.006;2023-08-07T04:15:35;98684.20;;;13.50
68127;BMP180;54931;52.098;21.006;2023-08-07T04:18:02;98689.80;;;13.50
68127;BMP180;54931;52.098;21.006;2023-08-07T04:20:31;98692.40;;;13.50
68127;BMP180;54931;52.098;21.006;2023-08-07T04:22:59;98695.80;;;13.50
68127;BMP180;54931;52.098;21.006;2023-08-07T04:25:28;98694.20;;;13.50
68127;BMP180;54931;52.098;21.006;2023-08-07T04:27:58;98702.40;;;13.50
68127;BMP180;54931;52.098;21.006;2023-08-07T04:30:25;98704.40;;;13.52
68127;BMP180;54931;52.098;21.006;2023-08-07T04:32:53;98700.80;;;13.58
68127;BMP180;54931;52.098;21.006;2023-08-07T04:35:20;98701.00;;;13.60
68127;BMP180;54931;52.098;21.006;2023-08-07T04:37:48;98704.60;;;13.60
68127;BMP180;54931;52.098;21.006;2023-08-07T04:40:16;98708.00;;;13.60
68127;BMP180;54931;52.098;21.006;2023-08-07T04:42:44;98717.20;;;13.60
68127;BMP180;54931;52.098;21.006;2023-08-07T04:45:12;98719.60;;;13.60
68127;BMP180;54931;52.098;21.006;2023-08-07T04:47:39;98719.40;;;13.68
68127;BMP180;54931;52.098;21.006;2023-08-07T04:50:07;98714.20;;;13.70
68127;BMP180;54931;52.098;21.006;2023-08-07T04:52:36;98713.60;;;13.70
68127;BMP180;54931;52.098;21.006;2023-08-07T04:55:04;98709.20;;;13.70
68127;BMP180;54931;52.098;21.006;2023-08-07T04:57:32;98708.80;;;13.70
68127;BMP180;54931;52.098;21.006;2023-08-07T05:00:00;98710.40;;;13.70
68127;BMP180;54931;52.098;21.006;2023-08-07T05:02:28;98715.80;;;13.70
68127;BMP180;54931;52.098;21.006;2023-08-07T05:04:56;98715.40;;;13.80
68127;BMP180;54931;52.098;21.006;2023-08-07T05:07:24;98713.80;;;13.80
68127;BMP180;54931;52.098;21.006;2023-08-07T05:09:51;98717.80;;;13.84
68127;BMP180;54931;52.098;21.006;2023-08-07T05:12:19;98721.80;;;13.90
68127;BMP180;54931;52.098;21.006;2023-08-07T05:14:47;98735.60;;;14.00
68127;BMP180;54931;52.098;21.006;2023-08-07T05:17:14;98734.60;;;14.00
68127;BMP180;54931;52.098;21.006;2023-08-07T05:19:42;98737.20;;;14.10
68127;BMP180;54931;52.098;21.006;2023-08-07T05:22:10;98733.60;;;14.10
68127;BMP180;54931;52.098;21.006;2023-08-07T05:24:37;98728.20;;;14.20
68127;BMP180;54931;52.098;21.006;2023-08-07T05:27:09;98725.80;;;14.26
68127;BMP180;54931;52.098;21.006;2023-08-07T05:29:37;98722.40;;;14.30
68127;BMP180;54931;52.098;21.006;2023-08-07T05:32:14;98723.00;;;14.42
68127;BMP180;54931;52.098;21.006;2023-08-07T05:34:41;98729.60;;;14.56
68127;BMP180;54931;52.098;21.006;2023-08-07T05:37:09;98728.00;;;14.60
68127;BMP180;54931;52.098;21.006;2023-08-07T05:39:37;98728.40;;;14.70
68127;BMP180;54931;52.098;21.006;2023-08-07T05:42:05;98729.20;;;14.60
68127;BMP180;54931;52.098;21.006;2023-08-07T05:44:32;98728.40;;;14.60
68127;BMP180;54931;52.098;21.006;2023-08-07T05:47:00;98731.00;;;14.60
68127;BMP180;54931;52.098;21.006;2023-08-07T05:49:28;98732.20;;;14.60
68127;BMP180;54931;52.098;21.006;2023-08-07T05:51:56;98732.00;;;14.58
68127;BMP180;54931;52.098;21.006;2023-08-07T05:54:23;98734.00;;;14.50
68127;BMP180;54931;52.098;21.006;2023-08-07T05:56:50;98730.20;;;14.50
68127;BMP180;54931;52.098;21.006;2023-08-07T05:59:18;98731.60;;;14.50
68127;BMP180;54931;52.098;21.006;2023-08-07T06:01:45;98722.80;;;14.50
68127;BMP180;54931;52.098;21.006;2023-08-07T06:04:13;98728.80;;;14.50
68127;BMP180;54931;52.098;21.006;2023-08-07T06:06:41;98718.80;;;14.60
68127;BMP180;54931;52.098;21.006;2023-08-07T06:09:10;98726.80;;;14.60
68127;BMP180;54931;52.098;21.006;2023-08-07T06:11:38;98732.60;;;14.64
68127;BMP180;54931;52.098;21.006;2023-08-07T06:14:05;98733.40;;;14.70
68127;BMP180;54931;52.098;21.006;2023-08-07T06:16:33;98741.40;;;14.70
68127;BMP180;54931;52.098;21.006;2023-08-07T06:19:01;98739.00;;;14.70
68127;BMP180;54931;52.098;21.006;2023-08-07T06:21:30;98738.20;;;14.70
68127;BMP180;54931;52.098;21.006;2023-08-07T06:23:58;98730.60;;;14.76
68127;BMP180;54931;52.098;21.006;2023-08-07T06:26:25;98714.60;;;14.80
68127;BMP180;54931;52.098;21.006;2023-08-07T06:28:53;98719.20;;;14.80
68127;BMP180;54931;52.098;21.006;2023-08-07T06:31:21;98715.80;;;14.80
68127;BMP180;54931;52.098;21.006;2023-08-07T06:33:49;98723.60;;;14.80
68127;BMP180;54931;52.098;21.006;2023-08-07T06:36:17;98724.00;;;14.80
68127;BMP180;54931;52.098;21.006;2023-08-07T06:38:45;98719.00;;;14.72
68127;BMP180;54931;52.098;21.006;2023-08-07T06:41:12;98726.00;;;14.70
68127;BMP180;54931;52.098;21.006;2023-08-07T06:43:40;98733.80;;;14.80
68127;BMP180;54931;52.098;21.006;2023-08-07T06:46:08;98734.20;;;14.80
68127;BMP180;54931;52.098;21.006;2023-08-07T06:48:37;98737.20;;;14.90
68127;BMP180;54931;52.098;21.006;2023-08-07T06:51:05;98742.80;;;15.02
68127;BMP180;54931;52.098;21.006;2023-08-07T06:53:33;98742.40;;;15.20
68127;BMP180;54931;52.098;21.006;2023-08-07T06:56:01;98744.00;;;15.30
68127;BMP180;54931;52.098;21.006;2023-08-07T06:58:29;98747.00;;;15.40
68127;BMP180;54931;52.098;21.006;2023-08-07T07:00:57;98751.20;;;15.50
68127;BMP180;54931;52.098;21.006;2023-08-07T07:03:25;98753.60;;;15.60
68127;BMP180;54931;52.098;21.006;2023-08-07T07:05:53;98753.80;;;15.60
68127;BMP180;54931;52.098;21.006;2023-08-07T07:08:21;98760.80;;;15.70
68127;BMP180;54931;52.098;21.006;2023-08-07T07:10:50;98760.40;;;15.70
68127;BMP180;54931;52.098;21.006;2023-08-07T07:13:18;98765.00;;;15.60
68127;BMP180;54931;52.098;21.006;2023-08-07T07:15:46;98762.20;;;15.60
68127;BMP180;54931;52.098;21.006;2023-08-07T07:18:13;98761.00;;;15.60
68127;BMP180;54931;52.098;21.006;2023-08-07T07:20:41;98763.40;;;15.60
68127;BMP180;54931;52.098;21.006;2023-08-07T07:23:08;98764.40;;;15.60
68127;BMP180;54931;52.098;21.006;2023-08-07T07:25:36;98766.60;;;15.60
68127;BMP180;54931;52.098;21.006;2023-08-07T07:28:04;98775.40;;;15.60
68127;BMP180;54931;52.098;21.006;2023-08-07T07:30:31;98783.20;;;15.60
68127;BMP180;54931;52.098;21.006;2023-08-07T07:32:59;98789.00;;;15.50
68127;BMP180;54931;52.098;21.006;2023-08-07T07:35:26;98790.20;;;15.50
68127;BMP180;54931;52.098;21.006;2023-08-07T07:37:55;98794.80;;;15.42
68127;BMP180;54931;52.098;21.006;2023-08-07T07:40:24;98791.40;;;15.40
68127;BMP180;54931;52.098;21.006;2023-08-07T07:42:52;98793.20;;;15.40
68127;BMP180;54931;52.098;21.006;2023-08-07T07:45:20;98795.80;;;15.46
68127;BMP180;54931;52.098;21.006;2023-08-07T07:47:48;98803.40;;;15.60
68127;BMP180;54931;52.098;21.006;2023-08-07T07:50:15;98797.40;;;15.70
68127;BMP180;54931;52.098;21.006;2023-08-07T07:52:44;98796.40;;;15.70
68127;BMP180;54931;52.098;21.006;2023-08-07T07:55:12;98797.00;;;15.80
68127;BMP180;54931;52.098;21.006;2023-08-07T07:57:41;98800.20;;;15.80
68127;BMP180;54931;52.098;21.006;2023-08-07T08:00:11;98800.40;;;15.80
68127;BMP180;54931;52.098;21.006;2023-08-07T08:02:40;98795.20;;;16.00
68127;BMP180;54931;52.098;21.006;2023-08-07T08:05:09;98798.60;;;16.20
68127;BMP180;54931;52.098;21.006;2023-08-07T08:07:40;98803.40;;;16.34
68127;BMP180;54931;52.098;21.006;2023-08-07T08:10:08;98805.20;;;16.30
68127;BMP180;54931;52.098;21.006;2023-08-07T08:12:36;98811.00;;;16.20
68127;BMP180;54931;52.098;21.006;2023-08-07T08:15:05;98813.40;;;16.20
68127;BMP180;54931;52.098;21.006;2023-08-07T08:17:34;98809.40;;;16.20
68127;BMP180;54931;52.098;21.006;2023-08-07T08:20:02;98804.00;;;16.40
68127;BMP180;54931;52.098;21.006;2023-08-07T08:22:31;98802.40;;;16.90
68127;BMP180;54931;52.098;21.006;2023-08-07T08:24:59;98807.80;;;17.20
68127;BMP180;54931;52.098;21.006;2023-08-07T08:27:27;98811.60;;;17.20
68127;BMP180;54931;52.098;21.006;2023-08-07T08:29:55;98823.40;;;17.10
68127;BMP180;54931;52.098;21.006;2023-08-07T08:32:23;98825.60;;;17.10
68127;BMP180;54931;52.098;21.006;2023-08-07T08:34:51;98825.40;;;17.10
68127;BMP180;54931;52.098;21.006;2023-08-07T08:37:18;98828.60;;;17.20
68127;BMP180;54931;52.098;21.006;2023-08-07T08:39:46;98822.60;;;17.32
68127;BMP180;54931;52.098;21.006;2023-08-07T08:42:15;98816.60;;;17.40
68127;BMP180;54931;52.098;21.006;2023-08-07T08:44:51;98803.80;;;17.50
68127;BMP180;54931;52.098;21.006;2023-08-07T08:47:22;98819.20;;;17.64
68127;BMP180;54931;52.098;21.006;2023-08-07T08:50:07;98823.60;;;17.80
68127;BMP180;54931;52.098;21.006;2023-08-07T08:52:56;98820.80;;;18.10
68127;BMP180;54931;52.098;21.006;2023-08-07T08:55:25;98812.00;;;18.40
68127;BMP180;54931;52.098;21.006;2023-08-07T08:57:54;98820.80;;;18.64
68127;BMP180;54931;52.098;21.006;2023-08-07T09:00:23;98820.00;;;18.70
68127;BMP180;54931;52.098;21.006;2023-08-07T09:02:53;98826.60;;;18.70
68127;BMP180;54931;52.098;21.006;2023-08-07T09:05:21;98827.60;;;18.70
68127;BMP180;54931;52.098;21.006;2023-08-07T09:07:49;98828.20;;;18.96
68127;BMP180;54931;52.098;21.006;2023-08-07T09:10:18;98833.60;;;19.40
68127;BMP180;54931;52.098;21.006;2023-08-07T09:13:08;98842.20;;;19.80
68127;BMP180;54931;52.098;21.006;2023-08-07T09:15:39;98849.60;;;20.04
68127;BMP180;54931;52.098;21.006;2023-08-07T09:18:08;98852.00;;;20.22
68127;BMP180;54931;52.098;21.006;2023-08-07T09:20:37;98859.40;;;20.46
68127;BMP180;54931;52.098;21.006;2023-08-07T09:23:10;98863.60;;;20.64
68127;BMP180;54931;52.098;21.006;2023-08-07T09:25:38;98867.80;;;21.06
68127;BMP180;54931;52.098;21.006;2023-08-07T09:28:06;98873.20;;;21.40
68127;BMP180;54931;52.098;21.006;2023-08-07T09:30:37;98867.80;;;21.50
68127;BMP180;54931;52.098;21.006;2023-08-07T09:33:06;98864.60;;;21.50
68127;BMP180;54931;52.098;21.006;2023-08-07T09:35:36;98868.20;;;21.50
68127;BMP180;54931;52.098;21.006;2023-08-07T09:38:04;98881.20;;;21.60
68127;BMP180;54931;52.098;21.006;2023-08-07T09:40:35;98892.40;;;21.84
68127;BMP180;54931;52.098;21.006;2023-08-07T09:43:03;98899.60;;;21.80
68127;BMP180;54931;52.098;21.006;2023-08-07T09:45:32;98912.40;;;21.70
68127;BMP180;54931;52.098;21.006;2023-08-07T09:48:06;98915.80;;;21.60
68127;BMP180;54931;52.098;21.006;2023-08-07T09:50:34;98919.40;;;21.32
68127;BMP180;54931;52.098;21.006;2023-08-07T09:53:03;98927.00;;;21.10
68127;BMP180;54931;52.098;21.006;2023-08-07T09:55:33;98929.00;;;20.86
68127;BMP180;54931;52.098;21.006;2023-08-07T09:58:12;98922.60;;;20.48
68127;BMP180;54931;52.098;21.006;2023-08-07T10:00:41;98928.80;;;20.20
68127;BMP180;54931;52.098;21.006;2023-08-07T10:03:10;98928.80;;;20.04
68127;BMP180;54931;52.098;21.006;2023-08-07T10:05:38;98922.80;;;20.10
68127;BMP180;54931;52.098;21.006;2023-08-07T10:08:07;98929.20;;;20.30
68127;BMP180;54931;52.098;21.006;2023-08-07T10:10:37;98928.40;;;20.30
68127;BMP180;54931;52.098;21.006;2023-08-07T10:13:05;98929.80;;;20.38
68127;BMP180;54931;52.098;21.006;2023-08-07T10:15:34;98924.20;;;20.62
68127;BMP180;54931;52.098;21.006;2023-08-07T10:18:05;98932.80;;;20.74
68127;BMP180;54931;52.098;21.006;2023-08-07T10:20:33;98922.80;;;20.58
68127;BMP180;54931;52.098;21.006;2023-08-07T10:23:08;98926.20;;;20.30
68127;BMP180;54931;52.098;21.006;2023-08-07T10:25:45;98931.40;;;20.16
68127;BMP180;54931;52.098;21.006;2023-08-07T10:28:18;98939.60;;;20.00
68127;BMP180;54931;52.098;21.006;2023-08-07T10:30:47;98941.40;;;19.80
68127;BMP180;54931;52.098;21.006;2023-08-07T10:33:18;98933.20;;;19.82
68127;BMP180;54931;52.098;21.006;2023-08-07T10:35:48;98938.00;;;20.28
68127;BMP180;54931;52.098;21.006;2023-08-07T10:38:22;98933.20;;;20.60
68127;BMP180;54931;52.098;21.006;2023-08-07T10:43:30;98931.80;;;20.78
68127;BMP180;54931;52.098;21.006;2023-08-07T10:46:04;98920.60;;;20.90
68127;BMP180;54931;52.098;21.006;2023-08-07T10:48:44;98937.20;;;20.80
68127;BMP180;54931;52.098;21.006;2023-08-07T10:51:17;98927.60;;;20.60
68127;BMP180;54931;52.098;21.006;2023-08-07T10:53:49;98935.60;;;20.40
68127;BMP180;54931;52.098;21.006;2023-08-07T10:56:33;98930.60;;;20.30
68127;BMP180;54931;52.098;21.006;2023-08-07T10:59:11;98940.20;;;20.26
68127;BMP180;54931;52.098;21.006;2023-08-07T11:01:43;98941.20;;;20.10
68127;BMP180;54931;52.098;21.006;2023-08-07T11:04:14;98949.20;;;20.00
68127;BMP180;54931;52.098;21.006;2023-08-07T11:06:47;98957.60;;;19.88
68127;BMP180;54931;52.098;21.006;2023-08-07T11:09:16;98959.20;;;19.80
68127;BMP180;54931;52.098;21.006;2023-08-07T11:11:48;98953.20;;;19.80
68127;BMP180;54931;52.098;21.006;2023-08-07T11:14:19;98950.00;;;19.92
68127;BMP180;54931;52.098;21.006;2023-08-07T11:16:48;98954.80;;;20.26
68127;BMP180;54931;52.098;21.006;2023-08-07T11:19:18;98958.00;;;20.40
68127;BMP180;54931;52.098;21.006;2023-08-07T11:21:47;98955.80;;;20.50
68127;BMP180;54931;52.098;21.006;2023-08-07T11:24:16;98958.00;;;20.62
68127;BMP180;54931;52.098;21.006;2023-08-07T11:26:46;98956.80;;;20.80
68127;BMP180;54931;52.098;21.006;2023-08-07T11:29:18;98948.00;;;21.00
68127;BMP180;54931;52.098;21.006;2023-08-07T11:31:46;98961.00;;;21.28
68127;BMP180;54931;52.098;21.006;2023-08-07T11:34:17;98962.60;;;21.60
68127;BMP180;54931;52.098;21.006;2023-08-07T11:36:46;98955.40;;;21.60
68127;BMP180;54931;52.098;21.006;2023-08-07T11:39:14;98947.00;;;21.60
68127;BMP180;54931;52.098;21.006;2023-08-07T11:41:42;98950.40;;;21.60
68127;BMP180;54931;52.098;21.006;2023-08-07T11:44:10;98950.60;;;21.50
68127;BMP180;54931;52.098;21.006;2023-08-07T11:46:38;98948.00;;;21.50
68127;BMP180;54931;52.098;21.006;2023-08-07T11:49:07;98950.20;;;21.32
68127;BMP180;54931;52.098;21.006;2023-08-07T11:51:37;98955.20;;;21.10
68127;BMP180;54931;52.098;21.006;2023-08-07T11:54:07;98947.20;;;20.72
68127;BMP180;54931;52.098;21.006;2023-08-07T11:56:35;98948.00;;;20.60
68127;BMP180;54931;52.098;21.006;2023-08-07T11:59:04;98947.20;;;20.74
68127;BMP180;54931;52.098;21.006;2023-08-07T12:01:38;98941.80;;;20.80
68127;BMP180;54931;52.098;21.006;2023-08-07T12:06:38;98938.60;;;20.90
68127;BMP180;54931;52.098;21.006;2023-08-07T12:09:12;98943.20;;;21.16
68127;BMP180;54931;52.098;21.006;2023-08-07T12:11:41;98954.20;;;21.40
68127;BMP180;54931;52.098;21.006;2023-08-07T12:14:14;98951.80;;;21.20
68127;BMP180;54931;52.098;21.006;2023-08-07T12:16:45;98953.40;;;21.10
68127;BMP180;54931;52.098;21.006;2023-08-07T12:19:13;98952.00;;;21.10
68127;BMP180;54931;52.098;21.006;2023-08-07T12:21:42;98956.80;;;21.00
68127;BMP180;54931;52.098;21.006;2023-08-07T12:24:13;98966.60;;;20.90
68127;BMP180;54931;52.098;21.006;2023-08-07T12:26:40;98976.00;;;20.70
68127;BMP180;54931;52.098;21.006;2023-08-07T12:29:08;98975.20;;;20.50
68127;BMP180;54931;52.098;21.006;2023-08-07T12:31:36;98993.40;;;20.40
68127;BMP180;54931;52.098;21.006;2023-08-07T12:34:03;98999.60;;;20.30
68127;BMP180;54931;52.098;21.006;2023-08-07T12:36:33;99000.00;;;20.12
68127;BMP180;54931;52.098;21.006;2023-08-07T12:39:00;99010.20;;;19.98
68127;BMP180;54931;52.098;21.006;2023-08-07T12:41:35;99023.80;;;19.80
68127;BMP180;54931;52.098;21.006;2023-08-07T12:44:04;99018.80;;;19.68
68127;BMP180;54931;52.098;21.006;2023-08-07T12:46:34;99024.40;;;19.56
68127;BMP180;54931;52.098;21.006;2023-08-07T12:49:09;99025.60;;;19.50
68127;BMP180;54931;52.098;21.006;2023-08-07T12:51:38;99016.40;;;19.50
68127;BMP180;54931;52.098;21.006;2023-08-07T12:54:06;99026.80;;;19.80
68127;BMP180;54931;52.098;21.006;2023-08-07T12:56:34;99033.20;;;20.00
68127;BMP180;54931;52.098;21.006;2023-08-07T12:59:03;99031.00;;;20.10
68127;BMP180;54931;52.098;21.006;2023-08-07T13:01:31;99033.20;;;20.10
68127;BMP180;54931;52.098;21.006;2023-08-07T13:03:59;99031.00;;;20.10
68127;BMP180;54931;52.098;21.006;2023-08-07T13:06:27;99024.60;;;20.10
68127;BMP180;54931;52.098;21.006;2023-08-07T13:08:55;99032.40;;;20.00
68127;BMP180;54931;52.098;21.006;2023-08-07T13:11:23;99027.00;;;20.10
68127;BMP180;54931;52.098;21.006;2023-08-07T13:13:51;99030.80;;;20.50
68127;BMP180;54931;52.098;21.006;2023-08-07T13:16:19;99033.80;;;20.80
68127;BMP180;54931;52.098;21.006;2023-08-07T13:18:46;99031.60;;;20.98
68127;BMP180;54931;52.098;21.006;2023-08-07T13:21:14;99026.40;;;20.84
68127;BMP180;54931;52.098;21.006;2023-08-07T13:23:42;99026.20;;;20.64
68127;BMP180;54931;52.098;21.006;2023-08-07T13:26:10;99028.40;;;20.40
68127;BMP180;54931;52.098;21.006;2023-08-07T13:28:38;99032.40;;;20.20
68127;BMP180;54931;52.098;21.006;2023-08-07T13:31:05;99037.40;;;20.10
68127;BMP180;54931;52.098;21.006;2023-08-07T13:33:33;99035.60;;;19.90
68127;BMP180;54931;52.098;21.006;2023-08-07T13:36:01;99038.60;;;19.80
68127;BMP180;54931;52.098;21.006;2023-08-07T13:38:29;99037.60;;;19.70
68127;BMP180;54931;52.098;21.006;2023-08-07T13:40:57;99031.40;;;19.60
68127;BMP180;54931;52.098;21.006;2023-08-07T13:43:25;99034.00;;;19.50
68127;BMP180;54931;52.098;21.006;2023-08-07T13:45:54;99035.80;;;19.50
68127;BMP180;54931;52.098;21.006;2023-08-07T13:48:22;99038.60;;;19.50
68127;BMP180;54931;52.098;21.006;2023-08-07T13:50:54;99037.00;;;19.44
68127;BMP180;54931;52.098;21.006;2023-08-07T13:53:22;99038.00;;;19.40
68127;BMP180;54931;52.098;21.006;2023-08-07T13:55:51;99040.20;;;19.40
68127;BMP180;54931;52.098;21.006;2023-08-07T13:58:19;99050.20;;;19.30
68127;BMP180;54931;52.098;21.006;2023-08-07T14:00:48;99060.60;;;19.20
68127;BMP180;54931;52.098;21.006;2023-08-07T14:03:15;99059.60;;;19.10
68127;BMP180;54931;52.098;21.006;2023-08-07T14:05:44;99070.80;;;19.00
68127;BMP180;54931;52.098;21.006;2023-08-07T14:08:11;99073.80;;;18.90
68127;BMP180;54931;52.098;21.006;2023-08-07T14:10:39;99079.20;;;18.90
68127;BMP180;54931;52.098;21.006;2023-08-07T14:13:09;99074.80;;;18.80
68127;BMP180;54931;52.098;21.006;2023-08-07T14:15:38;99075.80;;;18.80